createdAt,value
2022-10-04T00:00:40.949Z,61.13
2022-10-04T00:01:50.874Z,61.05
2022-10-04T00:02:31.830Z,63.26
2022-10-04T00:03:34.843Z,64.07
2022-10-04T00:04:28.801Z,64.09
2022-10-04T00:05:12.873Z,62.96
2022-10-04T00:05:51.449Z,62.57
2022-10-04T00:06:26.569Z,61.57
2022-10-04T00:07:11.879Z,60.72
2022-10-04T00:07:50.421Z,60.48
2022-10-04T00:08:42.455Z,59.62
2022-10-04T00:09:20.513Z,58.90
2022-10-04T00:10:00.515Z,58.13
2022-10-04T00:10:34.830Z,58.16
2022-10-04T00:11:14.886Z,58.60
2022-10-04T00:11:48.569Z,58.99
2022-10-04T00:12:38.925Z,59.97
2022-10-04T00:13:25.436Z,60.08
2022-10-04T00:14:01.472Z,62.16
2022-10-04T00:14:39.922Z,62.65
2022-10-04T00:15:22.463Z,63.48
2022-10-04T00:15:56.037Z,63.78
2022-10-04T00:16:37.168Z,63.36
2022-10-04T00:17:22.449Z,62.93
2022-10-04T00:18:25.036Z,62.27
2022-10-04T00:19:42.710Z,61.41
2022-10-04T00:20:50.842Z,61.39
2022-10-04T00:21:24.239Z,60.00
2022-10-04T00:21:57.305Z,58.58
2022-10-04T00:22:32.778Z,57.93
2022-10-04T00:23:24.287Z,57.70
2022-10-04T00:24:11.551Z,57.71
2022-10-04T00:25:13.916Z,58.51
2022-10-04T00:25:47.032Z,59.06
2022-10-04T00:26:23.178Z,60.77
2022-10-04T00:27:22.439Z,61.56
2022-10-04T00:28:16.788Z,62.27
2022-10-04T00:28:50.515Z,63.21
2022-10-04T00:29:35.775Z,64.10
2022-10-04T00:30:36.206Z,63.99
2022-10-04T00:31:12.129Z,63.90
2022-10-04T00:32:10.316Z,62.16
2022-10-04T00:33:08.417Z,61.78
2022-10-04T00:33:42.030Z,61.29
2022-10-04T00:34:15.391Z,59.82
2022-10-04T00:34:51.510Z,59.36
2022-10-04T00:35:27.405Z,58.77
2022-10-04T00:36:00.756Z,58.63
2022-10-04T00:36:41.627Z,58.78
2022-10-04T00:37:16.643Z,59.14
2022-10-04T00:37:59.999Z,60.02
2022-10-04T00:38:33.517Z,60.43
2022-10-04T00:39:09.665Z,61.65
2022-10-04T00:39:56.156Z,62.22
2022-10-04T00:40:42.608Z,63.08
2022-10-04T00:41:16.683Z,63.93
2022-10-04T00:41:49.754Z,63.99
2022-10-04T00:42:32.977Z,63.35
2022-10-04T00:43:20.588Z,62.63
2022-10-04T00:43:55.689Z,61.63
2022-10-04T00:44:34.240Z,60.53
2022-10-04T00:45:28.874Z,60.13
2022-10-04T00:46:24.548Z,59.64
2022-10-04T00:47:01.587Z,58.40
2022-10-04T00:47:42.359Z,58.45
2022-10-04T00:48:35.533Z,58.78
2022-10-04T00:49:11.533Z,59.51
2022-10-04T00:49:47.279Z,60.62
2022-10-04T00:50:30.102Z,61.53
2022-10-04T00:51:47.062Z,61.80
2022-10-04T00:52:26.260Z,63.34
2022-10-04T00:53:02.092Z,64.02
2022-10-04T00:53:53.973Z,63.43
2022-10-04T00:54:35.348Z,63.47
2022-10-04T00:55:11.008Z,62.17
2022-10-04T00:55:54.833Z,60.64
2022-10-04T00:56:33.324Z,60.43
2022-10-04T00:57:12.469Z,59.51
2022-10-04T00:57:49.720Z,58.91
2022-10-04T00:58:29.217Z,58.24
2022-10-04T00:59:08.189Z,58.07
2022-10-04T00:59:49.307Z,58.42
2022-10-04T01:00:23.004Z,59.19
2022-10-04T01:00:58.572Z,59.90
2022-10-04T01:01:36.052Z,60.74
2022-10-04T01:02:37.412Z,61.27
2022-10-04T01:03:33.763Z,61.69
2022-10-04T01:04:24.608Z,63.51
2022-10-04T01:05:11.198Z,64.68
2022-10-04T01:05:54.016Z,64.30
2022-10-04T01:06:28.121Z,63.38
2022-10-04T01:07:04.252Z,62.14
2022-10-04T01:07:43.801Z,61.28
2022-10-04T01:08:25.866Z,60.73
2022-10-04T01:09:08.312Z,60.24
2022-10-04T01:09:56.614Z,59.49
2022-10-04T01:10:33.069Z,58.28
2022-10-04T01:11:24.322Z,58.08
2022-10-04T01:12:10.304Z,58.71
2022-10-04T01:12:55.267Z,59.35
2022-10-04T01:13:40.619Z,60.04
2022-10-04T01:14:21.710Z,60.62
2022-10-04T01:15:16.086Z,61.65
2022-10-04T01:15:59.694Z,62.17
2022-10-04T01:16:36.611Z,63.59
2022-10-04T01:17:10.292Z,63.75
2022-10-04T01:18:09.294Z,63.30
2022-10-04T01:18:43.469Z,63.31
2022-10-04T01:19:22.497Z,61.53
2022-10-04T01:19:55.738Z,60.97
2022-10-04T01:20:49.504Z,60.05
2022-10-04T01:21:31.564Z,60.24
2022-10-04T01:22:14.823Z,58.66
2022-10-04T01:22:50.758Z,57.99
2022-10-04T01:23:45.245Z,58.01
2022-10-04T01:24:22.588Z,58.33
2022-10-04T01:24:55.939Z,59.31
2022-10-04T01:25:50.970Z,60.15
2022-10-04T01:26:27.106Z,60.27
2022-10-04T01:27:00.966Z,62.00
2022-10-04T01:27:40.800Z,62.63
2022-10-04T01:28:14.895Z,63.46
2022-10-04T01:28:48.131Z,63.88
2022-10-04T01:29:29.698Z,63.55
2022-10-04T01:30:07.844Z,63.43
2022-10-04T01:30:41.092Z,62.57
2022-10-04T01:31:14.807Z,61.67
2022-10-04T01:31:50.795Z,60.82
2022-10-04T01:32:23.979Z,60.25
2022-10-04T01:32:57.155Z,59.66
2022-10-04T01:33:31.354Z,58.99
2022-10-04T01:34:06.601Z,58.62
2022-10-04T01:34:40.935Z,58.43
2022-10-04T01:35:15.951Z,58.70
2022-10-04T01:35:49.106Z,59.16
2022-10-04T01:36:23.296Z,59.80
2022-10-04T01:37:00.769Z,60.54
2022-10-04T01:37:34.565Z,61.06
2022-10-04T01:38:08.027Z,61.96
2022-10-04T01:38:41.220Z,62.66
2022-10-04T01:39:19.547Z,63.44
2022-10-04T01:39:52.922Z,63.74
2022-10-04T01:40:26.245Z,63.50
2022-10-04T01:41:02.612Z,62.99
2022-10-04T01:41:44.261Z,62.32
2022-10-04T01:42:31.422Z,61.95
2022-10-04T01:43:12.655Z,61.24
2022-10-04T01:43:50.818Z,60.35
2022-10-04T01:44:56.133Z,59.63
2022-10-04T01:45:48.649Z,58.92
2022-10-04T01:46:36.560Z,58.01
2022-10-04T01:47:14.996Z,58.27
2022-10-04T01:47:57.653Z,59.36
2022-10-04T01:48:37.079Z,59.93
2022-10-04T01:49:14.525Z,60.90
2022-10-04T01:49:49.149Z,61.53
2022-10-04T01:50:47.514Z,62.28
2022-10-04T01:51:29.436Z,62.97
2022-10-04T01:52:08.392Z,64.10
2022-10-04T01:52:50.829Z,63.74
2022-10-04T01:53:30.821Z,63.42
2022-10-04T01:54:17.715Z,62.52
2022-10-04T01:55:00.669Z,61.66
2022-10-04T01:55:37.720Z,60.79
2022-10-04T01:56:19.188Z,59.86
2022-10-04T01:57:11.332Z,59.51
2022-10-04T01:57:57.492Z,58.39
2022-10-04T01:58:42.002Z,58.54
2022-10-04T01:59:29.897Z,59.06
2022-10-04T02:00:05.839Z,59.91
2022-10-04T02:00:44.033Z,60.69
2022-10-04T02:01:31.025Z,61.28
2022-10-04T02:02:11.387Z,61.90
2022-10-04T02:02:57.672Z,62.99
2022-10-04T02:03:36.513Z,63.98
2022-10-04T02:04:22.507Z,64.13
2022-10-04T02:04:58.602Z,63.90
2022-10-04T02:05:38.930Z,62.86
2022-10-04T02:06:15.121Z,62.06
2022-10-04T02:06:54.398Z,61.41
2022-10-04T02:07:31.549Z,60.76
2022-10-04T02:08:18.818Z,59.94
2022-10-04T02:08:57.776Z,59.93
2022-10-04T02:09:39.207Z,59.17
2022-10-04T02:10:19.217Z,58.57
2022-10-04T02:10:55.241Z,58.46
2022-10-04T02:11:31.362Z,59.01
2022-10-04T02:12:06.467Z,59.62
2022-10-04T02:12:46.606Z,60.58
2022-10-04T02:13:21.947Z,60.94
2022-10-04T02:13:55.809Z,61.81
2022-10-04T02:14:35.207Z,62.72
2022-10-04T02:15:10.119Z,63.35
2022-10-04T02:15:45.001Z,64.01
2022-10-04T02:16:20.705Z,64.02
2022-10-04T02:16:54.232Z,63.36
2022-10-04T02:17:31.027Z,62.89
2022-10-04T02:18:06.335Z,62.54
2022-10-04T02:18:43.808Z,61.94
2022-10-04T02:19:17.309Z,61.23
2022-10-04T02:19:50.879Z,60.63
2022-10-04T02:20:27.479Z,60.12
2022-10-04T02:21:00.902Z,59.68
2022-10-04T02:21:36.968Z,59.13
2022-10-04T02:22:11.716Z,58.63
2022-10-04T02:22:47.418Z,58.67
2022-10-04T02:23:22.941Z,58.81
2022-10-04T02:23:57.529Z,59.41
2022-10-04T02:24:35.132Z,60.02
2022-10-04T02:25:09.392Z,60.95
2022-10-04T02:25:42.449Z,61.47
2022-10-04T02:26:16.010Z,62.24
2022-10-04T02:26:51.077Z,62.89
2022-10-04T02:27:32.055Z,63.66
2022-10-04T02:28:11.757Z,63.88
2022-10-04T02:28:45.073Z,63.70
2022-10-04T02:29:20.709Z,62.90
2022-10-04T02:30:00.962Z,62.08
2022-10-04T02:30:40.032Z,61.52
2022-10-04T02:31:31.933Z,60.61
2022-10-04T02:32:26.809Z,59.91
2022-10-04T02:33:00.872Z,58.66
2022-10-04T02:33:42.337Z,58.16
2022-10-04T02:34:19.282Z,58.06
2022-10-04T02:34:55.194Z,58.45
2022-10-04T02:35:38.060Z,59.18
2022-10-04T02:36:13.533Z,59.73
2022-10-04T02:36:47.892Z,60.77
2022-10-04T02:37:24.124Z,61.55
2022-10-04T02:38:25.931Z,62.21
2022-10-04T02:39:16.808Z,62.90
2022-10-04T02:40:03.655Z,64.15
2022-10-04T02:40:57.389Z,63.53
2022-10-04T02:41:40.390Z,62.64
2022-10-04T02:42:17.172Z,60.97
2022-10-04T02:43:38.120Z,60.74
2022-10-04T02:44:33.391Z,60.44
2022-10-04T02:45:24.029Z,59.12
2022-10-04T02:46:09.648Z,58.14
2022-10-04T02:47:03.899Z,58.65
2022-10-04T02:48:11.863Z,58.83
2022-10-04T02:48:50.234Z,60.31
2022-10-04T02:49:40.353Z,61.27
2022-10-04T02:50:25.770Z,61.63
2022-10-04T02:51:12.394Z,63.31
2022-10-04T02:52:00.775Z,64.16
2022-10-04T02:52:46.624Z,64.34
2022-10-04T02:53:27.093Z,62.68
2022-10-04T02:54:12.158Z,62.49
2022-10-04T02:54:53.080Z,61.64
2022-10-04T02:55:31.462Z,60.52
2022-10-04T02:56:05.468Z,59.79
2022-10-04T02:56:40.396Z,59.13
2022-10-04T02:57:17.063Z,58.64
2022-10-04T02:57:52.675Z,58.33
2022-10-04T02:58:27.618Z,58.55
2022-10-04T02:59:05.462Z,59.07
2022-10-04T02:59:39.969Z,59.67
2022-10-04T03:00:13.053Z,60.40
2022-10-04T03:00:50.413Z,61.19
2022-10-04T03:01:54.311Z,61.55
2022-10-04T03:02:31.891Z,62.30
2022-10-04T03:03:31.141Z,63.62
2022-10-04T03:04:04.879Z,64.66
2022-10-04T03:04:40.495Z,64.20
2022-10-04T03:05:15.243Z,63.58
2022-10-04T03:05:58.526Z,63.06
2022-10-04T03:06:33.223Z,62.50
2022-10-04T03:07:09.021Z,61.45
2022-10-04T03:07:42.936Z,60.74
2022-10-04T03:08:16.013Z,60.05
2022-10-04T03:09:04.917Z,59.59
2022-10-04T03:09:40.804Z,59.32
2022-10-04T03:10:15.501Z,58.56
2022-10-04T03:10:49.871Z,58.64
2022-10-04T03:11:27.941Z,58.99
2022-10-04T03:12:01.259Z,59.55
2022-10-04T03:12:35.166Z,60.09
2022-10-04T03:13:09.995Z,60.83
2022-10-04T03:13:47.717Z,61.50
2022-10-04T03:14:24.381Z,62.24
2022-10-04T03:14:57.827Z,63.21
2022-10-04T03:15:32.850Z,63.81
2022-10-04T03:16:06.759Z,64.09
2022-10-04T03:16:43.763Z,63.82
2022-10-04T03:17:17.561Z,63.24
2022-10-04T03:17:51.005Z,62.48
2022-10-04T03:18:24.718Z,61.45
2022-10-04T03:18:58.470Z,60.71
2022-10-04T03:19:33.891Z,60.04
2022-10-04T03:20:11.544Z,59.38
2022-10-04T03:20:46.171Z,58.47
2022-10-04T03:21:21.949Z,58.28
2022-10-04T03:22:01.164Z,58.30
2022-10-04T03:22:34.285Z,58.64
2022-10-04T03:23:10.042Z,59.54
2022-10-04T03:23:43.990Z,60.11
2022-10-04T03:24:22.971Z,60.94
2022-10-04T03:24:58.333Z,61.53
2022-10-04T03:25:43.058Z,62.45
2022-10-04T03:26:34.746Z,63.29
2022-10-04T03:27:10.470Z,64.41
2022-10-04T03:27:45.210Z,63.93
2022-10-04T03:28:19.569Z,62.94
2022-10-04T03:28:53.341Z,62.20
2022-10-04T03:29:32.267Z,61.22
2022-10-04T03:30:06.335Z,60.51
2022-10-04T03:30:44.619Z,59.44
2022-10-04T03:31:20.248Z,58.60
2022-10-04T03:31:59.170Z,57.83
2022-10-04T03:32:33.534Z,57.73
2022-10-04T03:33:06.925Z,58.03
2022-10-04T03:33:41.353Z,58.65
2022-10-04T03:34:17.769Z,59.18
2022-10-04T03:35:04.884Z,59.82
2022-10-04T03:35:40.792Z,60.74
2022-10-04T03:36:18.824Z,61.79
2022-10-04T03:36:56.577Z,62.51
2022-10-04T03:37:34.775Z,63.23
2022-10-04T03:38:12.678Z,63.95
2022-10-04T03:38:48.927Z,64.08
2022-10-04T03:39:43.999Z,63.67
2022-10-04T03:40:18.394Z,63.50
2022-10-04T03:40:56.442Z,61.90
2022-10-04T03:41:29.745Z,61.21
2022-10-04T03:42:07.417Z,60.33
2022-10-04T03:42:41.159Z,59.80
2022-10-04T03:43:14.981Z,59.09
2022-10-04T03:43:50.692Z,58.35
2022-10-04T03:44:24.597Z,58.12
2022-10-04T03:45:02.329Z,58.32
2022-10-04T03:45:35.788Z,58.76
2022-10-04T03:46:10.435Z,59.43
2022-10-04T03:46:44.961Z,60.33
2022-10-04T03:47:43.574Z,61.02
2022-10-04T03:48:27.955Z,61.49
2022-10-04T03:49:01.778Z,62.54
2022-10-04T03:49:38.018Z,63.71
2022-10-04T03:50:20.185Z,63.96
2022-10-04T03:50:54.836Z,63.65
2022-10-04T03:51:27.949Z,62.89
2022-10-04T03:52:02.588Z,62.14
2022-10-04T03:52:38.230Z,61.52
2022-10-04T03:53:30.086Z,60.90
2022-10-04T03:54:05.607Z,60.71
2022-10-04T03:54:38.868Z,59.55
2022-10-04T03:55:16.017Z,58.83
2022-10-04T03:55:49.416Z,58.07
2022-10-04T03:56:28.837Z,58.04
2022-10-04T03:57:03.143Z,58.29
2022-10-04T03:57:37.584Z,58.84
2022-10-04T03:58:17.362Z,59.71
2022-10-04T03:58:51.875Z,60.00
2022-10-04T03:59:27.028Z,61.00
2022-10-04T04:00:01.900Z,61.78
2022-10-04T04:00:42.092Z,62.42
2022-10-04T04:01:23.037Z,63.16
2022-10-04T04:02:43.706Z,64.32
2022-10-04T04:03:21.821Z,64.19
2022-10-04T04:04:04.321Z,62.53
2022-10-04T04:04:48.429Z,61.66
2022-10-04T04:05:26.672Z,61.37
2022-10-04T04:06:03.819Z,60.42
2022-10-04T04:07:06.190Z,59.94
2022-10-04T04:08:01.288Z,59.51
2022-10-04T04:08:39.244Z,58.38
2022-10-04T04:09:25.647Z,58.74
2022-10-04T04:10:03.144Z,58.95
2022-10-04T04:10:42.172Z,60.34
2022-10-04T04:11:22.730Z,61.00
2022-10-04T04:11:58.176Z,61.65
2022-10-04T04:12:42.482Z,62.50
2022-10-04T04:13:25.318Z,63.31
2022-10-04T04:14:06.110Z,63.97
2022-10-04T04:14:42.730Z,64.12
2022-10-04T04:15:16.955Z,63.41
2022-10-04T04:15:50.902Z,62.67
2022-10-04T04:16:27.548Z,62.02
2022-10-04T04:17:25.788Z,61.37
2022-10-04T04:18:17.743Z,61.24
2022-10-04T04:18:54.028Z,60.71
2022-10-04T04:19:27.749Z,59.56
2022-10-04T04:20:07.365Z,58.85
2022-10-04T04:20:42.740Z,58.45
2022-10-04T04:21:20.571Z,58.39
2022-10-04T04:21:55.509Z,58.93
2022-10-04T04:22:31.782Z,59.43
2022-10-04T04:23:31.268Z,60.13
2022-10-04T04:24:13.285Z,61.39
2022-10-04T04:24:47.165Z,62.27
2022-10-04T04:25:24.088Z,63.26
2022-10-04T04:26:01.924Z,64.13
2022-10-04T04:26:50.363Z,64.39
2022-10-04T04:27:29.007Z,63.96
2022-10-04T04:28:14.210Z,63.63
2022-10-04T04:28:54.377Z,63.30
2022-10-04T04:29:36.618Z,62.69
2022-10-04T04:30:17.194Z,61.70
2022-10-04T04:30:55.055Z,61.13
2022-10-04T04:31:35.523Z,60.86
2022-10-04T04:32:31.741Z,60.45
2022-10-04T04:33:15.676Z,60.20
2022-10-04T04:34:15.557Z,59.56
2022-10-04T04:34:53.548Z,58.69
2022-10-04T04:35:36.508Z,59.06
2022-10-04T04:36:12.705Z,59.62
2022-10-04T04:36:46.144Z,60.30
2022-10-04T04:37:20.704Z,61.11
2022-10-04T04:38:26.682Z,61.91
2022-10-04T04:39:37.620Z,62.92
2022-10-04T04:40:21.756Z,64.28
2022-10-04T04:40:56.023Z,63.34
2022-10-04T04:41:35.475Z,62.82
2022-10-04T04:42:23.849Z,62.33
2022-10-04T04:43:00.301Z,61.41
2022-10-04T04:43:33.554Z,60.59
2022-10-04T04:44:18.367Z,60.14
2022-10-04T04:45:02.046Z,60.13
2022-10-04T04:45:37.230Z,59.36
2022-10-04T04:46:26.611Z,58.72
2022-10-04T04:47:00.943Z,58.64
2022-10-04T04:47:44.438Z,59.20
2022-10-04T04:48:19.761Z,59.88
2022-10-04T04:49:01.486Z,60.66
2022-10-04T04:49:40.374Z,61.18
2022-10-04T04:50:18.306Z,62.38
2022-10-04T04:50:57.510Z,63.10
2022-10-04T04:51:33.336Z,64.09
2022-10-04T04:52:13.999Z,64.01
2022-10-04T04:52:55.918Z,63.94
2022-10-04T04:53:30.685Z,63.21
2022-10-04T04:54:06.939Z,61.83
2022-10-04T04:54:40.244Z,60.65
2022-10-04T04:55:18.536Z,60.22
2022-10-04T04:56:04.709Z,59.81
2022-10-04T04:56:38.691Z,58.75
2022-10-04T04:57:17.847Z,58.07
2022-10-04T04:57:56.185Z,57.99
2022-10-04T04:58:39.555Z,58.40
2022-10-04T04:59:13.458Z,58.96
2022-10-04T04:59:52.777Z,59.82
2022-10-04T05:00:33.293Z,60.50
2022-10-04T05:01:09.430Z,61.87
2022-10-04T05:01:45.902Z,62.35
2022-10-04T05:02:35.247Z,63.16
2022-10-04T05:03:20.240Z,64.27
2022-10-04T05:04:14.724Z,64.27
2022-10-04T05:04:50.851Z,63.44
2022-10-04T05:05:27.646Z,62.46
2022-10-04T05:06:05.295Z,61.43
2022-10-04T05:07:06.551Z,60.72
2022-10-04T05:07:39.737Z,60.19
2022-10-04T05:08:25.641Z,59.53
2022-10-04T05:08:58.826Z,59.10
2022-10-04T05:09:38.785Z,58.39
2022-10-04T05:10:34.487Z,58.49
2022-10-04T05:11:10.374Z,58.53
2022-10-04T05:11:43.692Z,59.84
2022-10-04T05:12:21.884Z,60.51
2022-10-04T05:12:55.740Z,61.21
2022-10-04T05:13:48.568Z,61.97
2022-10-04T05:14:21.849Z,62.45
2022-10-04T05:14:57.240Z,63.75
2022-10-04T05:15:36.012Z,63.93
2022-10-04T05:16:21.878Z,63.02
2022-10-04T05:16:55.921Z,62.78
2022-10-04T05:17:34.947Z,61.46
2022-10-04T05:18:23.704Z,61.00
2022-10-04T05:19:01.034Z,60.06
2022-10-04T05:19:37.758Z,59.10
2022-10-04T05:20:14.076Z,58.23
2022-10-04T05:20:52.210Z,57.98
2022-10-04T05:21:30.623Z,58.27
2022-10-04T05:22:13.548Z,58.63
2022-10-04T05:22:49.686Z,59.47
2022-10-04T05:23:23.097Z,60.45
2022-10-04T05:23:58.323Z,61.21
2022-10-04T05:24:39.202Z,61.93
2022-10-04T05:25:29.506Z,62.60
2022-10-04T05:26:04.907Z,63.87
2022-10-04T05:26:38.128Z,63.91
2022-10-04T05:27:20.491Z,63.54
2022-10-04T05:27:55.423Z,63.02
2022-10-04T05:28:30.191Z,62.00
2022-10-04T05:29:12.640Z,61.35
2022-10-04T05:30:06.077Z,60.82
2022-10-04T05:31:03.218Z,60.65
2022-10-04T05:31:42.670Z,59.16
2022-10-04T05:32:33.845Z,57.94
2022-10-04T05:33:07.145Z,57.97
2022-10-04T05:33:50.556Z,58.41
2022-10-04T05:34:27.426Z,59.23
2022-10-04T05:35:02.076Z,60.20
2022-10-04T05:35:58.225Z,60.95
2022-10-04T05:36:46.868Z,61.30
2022-10-04T05:37:26.054Z,62.66
2022-10-04T05:38:37.070Z,63.94
2022-10-04T05:39:36.913Z,63.78
2022-10-04T05:40:13.529Z,63.86
2022-10-04T05:41:03.257Z,61.75
2022-10-04T05:41:43.778Z,60.45
2022-10-04T05:42:38.045Z,60.51
2022-10-04T05:43:23.005Z,59.74
2022-10-04T05:43:57.230Z,58.50
2022-10-04T05:44:36.393Z,57.69
2022-10-04T05:45:28.583Z,57.43
2022-10-04T05:46:10.808Z,57.61
2022-10-04T05:46:44.235Z,58.96
2022-10-04T05:47:23.102Z,59.94
2022-10-04T05:48:08.546Z,60.59
2022-10-04T05:48:43.608Z,61.19
2022-10-04T05:49:19.527Z,62.71
2022-10-04T05:49:55.959Z,63.21
2022-10-04T05:50:35.338Z,63.88
2022-10-04T05:51:19.079Z,63.86
2022-10-04T05:52:03.121Z,63.52
2022-10-04T05:52:38.810Z,62.33
2022-10-04T05:53:36.060Z,61.45
2022-10-04T05:54:10.394Z,60.61
2022-10-04T05:54:43.893Z,59.73
2022-10-04T05:55:29.443Z,59.12
2022-10-04T05:56:14.681Z,58.25
2022-10-04T05:57:09.801Z,57.93
2022-10-04T05:57:59.248Z,58.33
2022-10-04T05:58:59.488Z,59.10
2022-10-04T06:00:04.485Z,60.08
2022-10-04T06:00:56.743Z,61.26
2022-10-04T06:01:35.569Z,62.11
2022-10-04T06:02:51.864Z,63.61
2022-10-04T06:04:09.568Z,63.71
2022-10-04T06:05:00.965Z,63.53
2022-10-04T06:05:40.025Z,61.39
2022-10-04T06:06:43.028Z,60.01
2022-10-04T06:07:24.504Z,59.15
2022-10-04T06:08:01.021Z,57.89
2022-10-04T06:08:52.303Z,58.10
2022-10-04T06:09:52.660Z,58.12
2022-10-04T06:10:26.303Z,58.95
2022-10-04T06:11:21.381Z,60.55
2022-10-04T06:12:09.921Z,61.32
2022-10-04T06:13:02.026Z,61.87
2022-10-04T06:13:40.715Z,62.96
2022-10-04T06:14:41.365Z,64.36
2022-10-04T06:15:31.818Z,65.04
2022-10-04T06:16:23.591Z,62.90
2022-10-04T06:17:38.824Z,61.72
2022-10-04T06:18:30.667Z,60.70
2022-10-04T06:19:48.644Z,60.24
2022-10-04T06:20:24.455Z,58.61
2022-10-04T06:21:25.261Z,58.40
2022-10-04T06:22:16.918Z,58.04
2022-10-04T06:23:03.446Z,59.29
2022-10-04T06:24:05.600Z,60.22
2022-10-04T06:24:42.236Z,60.77
2022-10-04T06:25:30.316Z,62.12
2022-10-04T06:26:12.331Z,62.99
2022-10-04T06:26:56.965Z,64.08
2022-10-04T06:27:54.496Z,64.39
2022-10-04T06:28:43.423Z,62.93
2022-10-04T06:29:21.188Z,61.96
2022-10-04T06:30:05.138Z,60.50
2022-10-04T06:31:30.693Z,59.93
2022-10-04T06:32:39.633Z,59.10
2022-10-04T06:33:23.060Z,58.90
2022-10-04T06:34:14.951Z,59.24
2022-10-04T06:35:28.478Z,59.83
2022-10-04T06:36:17.056Z,60.09
2022-10-04T06:37:00.371Z,61.63
2022-10-04T06:37:53.951Z,63.15
2022-10-04T06:38:51.589Z,63.72
2022-10-04T06:39:47.780Z,63.39
2022-10-04T06:40:43.927Z,62.91
2022-10-04T06:41:40.307Z,61.66
2022-10-04T06:42:52.266Z,60.45
2022-10-04T06:43:43.940Z,59.14
2022-10-04T06:44:37.431Z,58.24
2022-10-04T06:45:32.079Z,58.25
2022-10-04T06:46:42.727Z,58.77
2022-10-04T06:47:21.572Z,60.24
2022-10-04T06:48:16.195Z,61.22
2022-10-04T06:49:17.618Z,61.59
2022-10-04T06:50:07.329Z,62.49
2022-10-04T06:50:57.772Z,63.96
2022-10-04T06:51:41.059Z,63.77
2022-10-04T06:52:17.381Z,62.35
2022-10-04T06:52:55.121Z,61.52
2022-10-04T06:54:00.472Z,60.82
2022-10-04T06:54:33.578Z,59.94
2022-10-04T06:55:09.637Z,59.16
2022-10-04T06:55:49.062Z,58.34
2022-10-04T06:57:13.060Z,58.14
2022-10-04T06:57:53.572Z,57.84
2022-10-04T06:58:45.038Z,59.24
2022-10-04T06:59:39.368Z,60.54
2022-10-04T07:00:15.282Z,60.47
2022-10-04T07:00:57.496Z,61.92
2022-10-04T07:01:33.400Z,62.37
2022-10-04T07:02:15.268Z,63.39
2022-10-04T07:02:52.889Z,63.65
2022-10-04T07:03:41.484Z,63.33
2022-10-04T07:05:03.135Z,63.02
2022-10-04T07:05:47.418Z,62.22
2022-10-04T07:06:31.703Z,60.59
2022-10-04T07:07:35.631Z,59.40
2022-10-04T07:08:34.531Z,58.19
2022-10-04T07:09:19.686Z,58.27
2022-10-04T07:09:56.030Z,58.49
2022-10-04T07:10:56.480Z,59.69
2022-10-04T07:11:50.250Z,59.92
2022-10-04T07:12:24.951Z,60.62
2022-10-04T07:13:00.846Z,61.80
2022-10-04T07:13:44.607Z,62.57
2022-10-04T07:14:33.034Z,62.89
2022-10-04T07:15:18.899Z,63.63
2022-10-04T07:16:20.405Z,63.23
2022-10-04T07:16:56.674Z,63.82
2022-10-04T07:17:36.548Z,63.52
2022-10-04T07:18:17.667Z,60.76
2022-10-04T07:19:04.700Z,59.79
2022-10-04T07:19:48.563Z,58.85
2022-10-04T07:20:27.954Z,57.88
2022-10-04T07:21:17.201Z,57.72
2022-10-04T07:22:08.382Z,57.99
2022-10-04T07:22:50.661Z,58.37
2022-10-04T07:23:32.347Z,59.68
2022-10-04T07:24:12.288Z,60.91
2022-10-04T07:24:51.546Z,61.12
2022-10-04T07:25:32.325Z,62.11
2022-10-04T07:26:14.561Z,62.43
2022-10-04T07:26:50.981Z,62.96
2022-10-04T07:27:37.139Z,63.32
2022-10-04T07:28:29.546Z,62.87
2022-10-04T07:29:20.696Z,61.96
2022-10-04T07:29:58.581Z,61.09
2022-10-04T07:30:38.777Z,59.78
2022-10-04T07:31:23.655Z,58.82
2022-10-04T07:32:08.816Z,57.56
2022-10-04T07:32:48.121Z,57.49
2022-10-04T07:33:25.322Z,57.64
2022-10-04T07:34:04.078Z,58.35
2022-10-04T07:34:47.218Z,59.07
2022-10-04T07:35:46.011Z,59.57
2022-10-04T07:36:25.323Z,60.75
2022-10-04T07:37:03.648Z,61.64
2022-10-04T07:38:05.923Z,62.26
2022-10-04T07:38:47.869Z,63.00
2022-10-04T07:39:26.927Z,63.79
2022-10-04T07:40:27.914Z,63.39
2022-10-04T07:41:30.438Z,62.90
2022-10-04T07:42:40.026Z,61.67
2022-10-04T07:43:29.013Z,60.73
2022-10-04T07:44:16.491Z,58.75
2022-10-04T07:45:26.817Z,57.75
2022-10-04T07:46:12.890Z,57.79
2022-10-04T07:46:56.279Z,58.74
2022-10-04T07:47:30.395Z,59.40
2022-10-04T07:48:09.799Z,59.93
2022-10-04T07:48:44.184Z,60.78
2022-10-04T07:49:20.949Z,61.25
2022-10-04T07:49:55.074Z,62.27
2022-10-04T07:50:38.929Z,62.62
2022-10-04T07:51:41.648Z,63.39
2022-10-04T07:52:46.161Z,63.69
2022-10-04T07:53:50.698Z,62.58
2022-10-04T07:54:43.946Z,61.12
2022-10-04T07:55:23.163Z,60.08
2022-10-04T07:56:16.929Z,58.81
2022-10-04T07:57:02.648Z,57.91
2022-10-04T07:57:38.842Z,57.53
2022-10-04T07:58:43.313Z,58.35
2022-10-04T07:59:52.850Z,59.10
2022-10-04T08:00:37.544Z,59.16
2022-10-04T08:01:19.259Z,60.80
2022-10-04T08:02:28.927Z,61.83
2022-10-04T08:03:42.617Z,62.89
2022-10-04T08:04:28.682Z,63.01
2022-10-04T08:05:35.108Z,62.56
2022-10-04T08:06:45.557Z,61.40
2022-10-04T08:07:46.767Z,59.85
2022-10-04T08:08:28.244Z,59.25
2022-10-04T08:09:14.323Z,58.63
2022-10-04T08:10:03.879Z,58.54
2022-10-04T08:11:01.888Z,58.89
2022-10-04T08:12:02.224Z,59.53
2022-10-04T08:12:57.917Z,60.63
2022-10-04T08:13:47.626Z,61.54
2022-10-04T08:14:46.003Z,62.32
2022-10-04T08:15:36.872Z,63.69
2022-10-04T08:16:38.263Z,63.54
2022-10-04T08:17:15.824Z,62.41
2022-10-04T08:18:36.660Z,60.56
2022-10-04T08:20:08.781Z,60.64
2022-10-04T08:21:00.656Z,57.97
2022-10-04T08:21:47.000Z,57.26
2022-10-04T08:22:44.116Z,57.87
2022-10-04T08:23:40.012Z,57.55
2022-10-04T08:24:50.062Z,58.54
2022-10-04T08:25:52.411Z,59.17
2022-10-04T08:26:46.607Z,60.44
2022-10-04T08:28:07.362Z,61.20
2022-10-04T08:29:05.386Z,61.82
2022-10-04T08:30:04.933Z,62.96
2022-10-04T08:30:54.824Z,64.01
2022-10-04T08:31:45.404Z,62.97
2022-10-04T08:32:39.034Z,61.91
2022-10-04T08:33:30.976Z,60.70
2022-10-04T08:34:15.899Z,59.51
2022-10-04T08:34:58.320Z,57.79
2022-10-04T08:35:40.582Z,57.62
2022-10-04T08:36:16.556Z,57.77
2022-10-04T08:37:22.184Z,58.57
2022-10-04T08:38:08.351Z,58.59
2022-10-04T08:38:57.058Z,59.77
2022-10-04T08:39:42.380Z,60.34
2022-10-04T08:40:54.432Z,61.05
2022-10-04T08:41:27.655Z,62.34
2022-10-04T08:42:42.166Z,62.95
2022-10-04T08:43:21.445Z,63.09
2022-10-04T08:44:25.721Z,62.55
2022-10-04T08:45:54.425Z,61.90
2022-10-04T08:46:33.413Z,61.58
2022-10-04T08:47:28.870Z,59.23
2022-10-04T08:48:07.357Z,57.72
2022-10-04T08:49:18.284Z,57.47
2022-10-04T08:50:26.261Z,57.98
2022-10-04T08:51:18.160Z,58.81
2022-10-04T08:51:54.390Z,59.13
2022-10-04T08:53:10.068Z,60.22
2022-10-04T08:54:01.454Z,60.12
2022-10-04T08:54:46.802Z,61.09
2022-10-04T08:55:38.845Z,62.36
2022-10-04T08:56:30.372Z,63.01
2022-10-04T08:57:37.322Z,63.47
2022-10-04T08:58:15.498Z,63.11
2022-10-04T08:59:07.032Z,61.55
2022-10-04T09:00:10.515Z,60.30
2022-10-04T09:01:11.704Z,59.24
2022-10-04T09:02:20.908Z,58.06
2022-10-04T09:03:26.920Z,57.75
2022-10-04T09:04:29.481Z,58.99
2022-10-04T09:05:36.637Z,59.44
2022-10-04T09:06:38.813Z,59.81
2022-10-04T09:07:21.060Z,60.56
2022-10-04T09:08:10.442Z,62.46
2022-10-04T09:09:07.753Z,62.96
2022-10-04T09:09:42.747Z,63.16
2022-10-04T09:10:29.708Z,62.56
2022-10-04T09:11:11.856Z,62.24
2022-10-04T09:12:27.259Z,61.01
2022-10-04T09:13:13.605Z,59.72
2022-10-04T09:14:09.837Z,58.49
2022-10-04T09:14:58.121Z,58.14
2022-10-04T09:15:54.008Z,58.56
2022-10-04T09:16:39.778Z,58.67
2022-10-04T09:17:37.207Z,59.29
2022-10-04T09:18:13.429Z,60.09
2022-10-04T09:18:59.589Z,61.13
2022-10-04T09:19:47.617Z,61.68
2022-10-04T09:20:40.901Z,61.74
2022-10-04T09:21:17.416Z,62.78
2022-10-04T09:22:01.618Z,63.31
2022-10-04T09:22:57.529Z,63.30
2022-10-04T09:23:49.418Z,62.74
2022-10-04T09:24:45.538Z,61.53
2022-10-04T09:25:21.636Z,60.37
2022-10-04T09:26:10.908Z,58.26
2022-10-04T09:27:13.209Z,57.49
2022-10-04T09:28:21.044Z,57.22
2022-10-04T09:29:19.737Z,57.46
2022-10-04T09:30:21.844Z,58.09
2022-10-04T09:31:33.026Z,59.50
2022-10-04T09:32:24.011Z,60.81
2022-10-04T09:33:11.129Z,61.56